Date,TemperatureHighF,TemperatureAvgF,TemperatureLowF,DewpointHighF,DewpointAvgF,DewpointLowF,HumidityHigh,HumidityAvg,HumidityLow,PressureMaxIn,PressureMinIn,WindSpeedMaxMPH,WindSpeedAvgMPH,GustSpeedMaxMPH,PrecipitationSumIn
2013-1-1,57,40,30,44,34,28,100,82,37,30.28,30.18,13,1,15,0.00
2013-1-2,54,38,28,40,32,26,96,83,56,30.24,30.12,8,1,0,0.01
2013-1-3,55,38,27,41,34,26,98,87,55,30.27,30.16,5,1,0,0.01
2013-1-4,56,40,30,44,36,29,98,86,59,30.28,30.17,5,0,0,0.00
2013-1-5,49,41,31,45,40,30,98,94,82,30.25,30.05,8,1,0,0.24
2013-1-6,55,45,34,46,42,34,98,90,66,30.18,30.04,7,1,0,0.02
2013-1-7,60,44,33,52,41,32,99,91,66,30.26,30.14,5,0,0,0.00
2013-1-8,61,44,35,51,42,34,99,91,69,30.24,30.12,5,0,0,0.01
2013-1-9,52,42,33,50,40,31,99,94,79,30.16,29.97,9,1,12,0.02
2013-1-10,51,39,30,39,33,29,97,79,51,30.19,30.06,14,2,16,0.01
2013-1-11,52,39,30,43,34,28,96,84,63,30.25,30.11,6,1,12,0.00
2013-1-12,52,38,26,36,31,25,97,80,43,30.24,30.12,4,0,0,0.00
2013-1-13,51,36,24,38,30,16,99,80,32,30.26,30.17,10,1,15,0.01
2013-1-14,56,41,26,34,26,15,94,60,26,30.39,30.21,12,1,15,0.00
2013-1-15,52,36,26,37,31,25,97,82,51,30.48,30.39,4,0,0,0.00
2013-1-16,58,38,26,41,33,25,98,83,48,30.44,30.26,5,0,0,0.01
2013-1-17,60,39,26,44,34,25,98,85,51,30.27,30.15,5,1,0,0.01
2013-1-18,60,40,27,46,36,27,100,86,54,30.23,30.12,9,1,0,0.00
2013-1-19,61,40,26,43,35,26,98,83,49,30.25,30.15,7,1,0,0.01
2013-1-20,62,41,27,42,34,26,98,81,43,30.23,30.11,8,1,0,0.01
2013-1-21,62,42,25,45,35,24,97,81,50,30.18,30.07,7,1,0,0.01
2013-1-22,61,44,30,44,38,29,98,81,52,30.11,29.97,9,1,0,0.01
2013-1-23,51,48,44,48,45,42,98,90,78,30.08,29.94,7,1,0,0.39
2013-1-24,59,51,47,54,49,46,99,94,81,30.18,30.06,6,1,0,0.00
2013-1-25,63,52,44,57,50,44,99,93,78,30.18,30.02,5,0,0,0.00
2013-1-26,57,48,36,50,44,34,100,87,59,30.07,29.95,10,1,15,0.01
2013-1-27,56,42,30,41,35,28,98,79,44,30.18,30.05,8,2,0,0.00
2013-1-28,58,44,32,42,38,31,96,79,54,30.28,30.16,12,3,16,0.01
2013-1-29,61,46,33,49,40,32,96,81,52,30.35,30.25,8,1,0,0.00
2013-1-30,67,48,35,54,43,34,99,83,55,30.33,30.24,7,0,0,0.00
2013-1-31,63,46,34,51,42,33,100,88,60,30.29,30.17,6,1,0,0.01
2013-2-1,66,47,33,52,42,33,100,86,57,30.20,30.10,8,1,0,0.00
2013-2-2,59,47,38,52,45,37,100,94,76,30.29,30.20,12,1,0,0.01
2013-2-3,58,47,36,52,44,35,100,92,76,30.24,30.13,8,1,17,0.00
2013-2-4,53,45,37,51,44,37,100,98,90,30.17,30.06,8,1,0,0.00
2013-2-5,58,48,37,51,46,36,99,92,78,30.15,30.04,14,2,17,0.01
2013-2-6,57,44,33,49,40,32,100,88,59,30.20,30.10,11,2,15,0.00
2013-2-7,54,46,36,47,42,36,100,87,52,30.15,29.98,14,3,17,0.10
2013-2-8,57,44,35,45,39,35,100,84,56,30.01,29.92,10,2,12,0.00
2013-2-9,59,43,32,41,34,29,92,72,38,30.09,30.00,7,1,0,0.00
2013-2-10,61,41,27,48,35,26,97,81,48,30.12,30.00,6,0,0,0.00
2013-2-11,66,46,30,46,37,29,96,75,30,30.22,30.07,11,1,0,0.00
2013-2-12,61,44,35,50,42,35,99,91,56,30.36,30.22,8,1,0,0.01
2013-2-13,62,44,33,50,40,32,99,87,53,30.34,30.20,5,0,0,0.01
2013-2-14,68,48,34,54,43,34,100,86,54,30.25,30.14,6,1,0,0.01
2013-2-15,68,49,34,51,43,34,100,81,47,30.26,30.19,10,1,0,0.00
2013-2-16,70,49,36,54,44,35,100,85,44,30.24,30.04,9,1,0,0.00
2013-2-17,61,45,36,48,41,36,100,88,60,30.05,29.97,7,1,0,0.01
2013-2-18,52,43,32,46,40,31,100,90,75,30.02,29.92,12,2,16,0.00
2013-2-19,50,43,32,44,38,30,99,85,61,29.95,29.72,19,3,22,0.19
2013-2-20,60,43,29,46,36,28,98,80,39,30.05,29.85,10,2,14,0.01
2013-2-21,59,46,32,43,38,31,97,78,45,30.16,30.05,14,3,16,0.00
2013-2-22,61,46,32,48,41,31,100,84,52,30.24,30.16,9,1,12,0.00
2013-2-23,60,50,41,47,39,32,98,70,35,30.25,30.15,13,3,16,0.00
2013-2-24,64,47,34,43,36,30,94,70,30,30.25,30.14,11,2,16,0.00
2013-2-25,63,45,32,50,40,32,100,84,55,30.26,30.15,10,1,12,0.00
2013-2-26,67,46,30,44,38,29,96,76,25,30.22,30.13,11,1,15,0.01
2013-2-27,66,46,32,47,39,31,100,81,35,30.35,30.20,7,1,0,0.00
2013-2-28,63,52,41,57,49,40,100,90,71,30.43,30.35,11,1,14,0.00
2013-3-1,72,51,38,59,47,38,100,87,56,30.42,30.23,9,1,0,0.01
2013-3-2,68,53,41,58,49,41,100,87,61,30.24,30.05,10,1,0,0.00
2013-3-3,60,51,47,53,49,46,97,91,76,30.09,30.02,11,2,14,0.00
2013-3-4,56,47,38,50,44,37,99,92,78,30.14,30.05,12,2,15,0.00
2013-3-5,56,46,34,48,42,33,99,87,69,30.06,29.78,11,3,19,0.19
2013-3-6,56,48,36,48,43,35,96,81,60,30.05,29.80,15,2,20,0.32
2013-3-7,55,44,35,46,40,34,98,86,54,29.99,29.86,7,1,0,0.00
2013-3-8,58,46,34,50,41,33,98,84,62,30.03,29.84,14,2,18,0.01
2013-3-9,64,48,34,52,42,33,99,82,49,30.30,30.03,10,2,15,0.00
2013-3-10,66,48,34,50,42,33,100,82,39,30.34,30.24,8,1,0,0.00
2013-3-11,70,49,37,53,45,37,100,87,46,30.26,30.09,8,1,0,0.00
2013-3-12,69,50,39,61,47,39,100,91,64,30.16,30.07,10,1,0,0.01
2013-3-13,78,54,37,60,48,36,99,84,49,30.16,30.04,6,0,0,0.00
2013-3-14,65,51,42,58,47,40,99,89,70,30.16,30.08,5,1,0,0.00
2013-3-15,69,51,38,58,46,37,98,86,56,30.12,30.02,7,1,0,0.01
2013-3-16,69,52,36,55,46,35,99,82,55,30.11,30.00,9,1,0,0.01
2013-3-17,66,51,37,51,43,35,96,76,44,30.14,30.03,12,2,14,0.00
2013-3-18,67,49,35,52,43,34,98,81,48,30.11,30.01,6,1,0,0.00
2013-3-19,62,50,40,51,45,39,98,83,57,30.12,30.04,5,0,0,0.06
2013-3-20,58,51,46,56,50,43,98,95,85,30.13,30.04,8,1,0,0.45
2013-3-21,61,49,34,52,43,34,98,81,58,30.12,30.00,8,1,13,0.00
2013-3-22,64,51,39,47,40,34,92,68,38,30.12,30.02,9,2,0,0.00
2013-3-23,66,48,32,48,39,31,96,75,37,30.14,30.03,9,1,0,0.00
2013-3-24,66,49,35,56,44,34,100,85,55,30.09,29.96,11,1,0,0.00
2013-3-25,55,46,35,49,43,34,100,91,77,30.02,29.93,10,2,16,0.00
2013-3-26,59,48,38,52,45,37,100,89,69,30.00,29.94,10,2,13,0.00
2013-3-27,59,51,41,55,49,40,100,93,81,30.01,29.93,8,1,0,0.00
2013-3-28,64,55,49,58,52,47,99,91,74,30.08,29.99,8,1,0,0.00
2013-3-29,74,56,48,60,53,48,100,90,54,30.08,30.00,9,1,0,0.00
2013-3-30,67,56,49,57,53,49,99,91,68,30.06,29.98,11,1,0,0.00
2013-3-31,64,57,51,58,54,51,100,91,69,30.05,29.99,13,2,14,0.00
2013-4-1,62,54,46,58,53,45,100,95,80,30.15,30.03,8,1,0,0.00
2013-4-2,61,50,43,57,49,43,100,97,87,30.18,30.09,8,2,0,0.00
2013-4-3,72,51,45,61,49,45,100,96,57,30.13,29.98,9,1,0,0.00
2013-4-4,60,54,48,58,54,48,100,98,90,30.11,29.97,10,2,16,0.00
2013-4-5,62,56,53,57,54,52,100,93,77,30.17,30.10,12,2,15,0.00
2013-4-6,65,55,53,59,54,51,99,95,80,30.17,30.13,7,2,15,0.00
2013-4-7,61,55,49,57,52,46,100,91,77,30.17,29.81,25,4,25,0.01
2013-4-8,67,54,46,50,42,38,89,66,37,30.04,29.80,13,5,21,0.00
2013-4-9,78,62,44,54,43,26,87,56,15,30.11,30.01,14,3,19,0.00
2013-4-10,78,62,47,63,52,43,93,74,49,30.16,30.01,8,2,0,0.00
2013-4-11,72,56,43,58,49,42,99,80,54,30.05,29.82,10,2,14,0.00
2013-4-12,67,52,39,58,47,38,100,84,60,29.91,29.82,7,1,12,0.00
2013-4-13,67,55,41,54,48,40,98,77,60,29.90,29.79,11,2,0,0.00
2013-4-14,72,52,40,51,43,36,94,73,43,29.92,29.83,15,4,24,0.00
2013-4-15,61,50,36,46,39,33,100,70,35,29.96,29.84,25,5,25,0.00
2013-4-16,65,52,40,47,39,32,88,62,29,30.17,29.96,14,3,20,0.00
2013-4-17,69,54,42,47,40,29,91,63,24,30.26,30.16,14,3,18,0.00
2013-4-18,73,57,44,52,45,40,92,68,40,30.25,30.17,12,2,14,0.00
2013-4-19,76,58,39,60,48,38,99,73,39,30.22,30.05,13,2,17,0.00
2013-4-20,72,59,45,57,49,42,92,70,44,30.10,29.97,12,2,17,0.00
2013-4-21,77,59,40,60,49,39,100,73,39,30.02,29.91,8,1,0,0.00
2013-4-22,85,62,43,62,51,42,99,71,35,29.95,29.84,12,1,14,0.00
2013-4-23,79,62,46,55,40,23,98,52,14,29.91,29.83,10,2,15,0.00
2013-4-24,60,51,45,52,48,45,99,90,76,29.95,29.83,11,2,16,0.00
2013-4-25,60,53,46,53,49,44,94,86,74,30.12,29.95,13,2,15,0.00
2013-4-26,60,52,44,55,49,42,98,91,79,30.23,30.12,12,2,13,0.00
2013-4-27,66,52,45,58,49,44,100,92,73,30.22,30.06,11,2,14,0.00
2013-4-28,79,58,39,61,50,39,100,77,47,30.06,29.86,5,1,0,0.00
2013-4-29,80,63,46,62,53,44,98,72,44,29.89,29.75,9,1,0,0.00
2013-4-30,77,63,45,56,46,15,94,62,11,29.84,29.76,11,2,16,0.00
2013-5-1,86,67,46,52,32,15,77,33,8,30.07,29.82,11,2,14,0.00
2013-5-2,90,63,40,50,40,30,92,52,12,30.14,30.06,9,1,0,0.00
2013-5-3,86,62,41,54,44,37,89,58,27,30.06,29.78,8,1,0,0.00
2013-5-4,84,60,41,59,49,39,97,70,33,29.78,29.55,6,1,0,0.00
2013-5-5,64,58,51,52,50,48,93,76,63,29.81,29.61,10,2,12,0.00
2013-5-6,70,58,49,56,51,47,96,80,53,29.96,29.80,8,0,0,0.00
2013-5-7,70,58,48,57,52,46,97,84,57,30.03,29.95,8,1,12,0.00
2013-5-8,59,53,50,53,50,48,96,89,80,30.12,30.03,6,1,0,0.00
2013-5-9,62,54,49,54,50,48,95,86,73,30.16,30.08,9,2,12,0.00
2013-5-10,69,54,48,58,51,47,97,87,67,30.17,30.09,8,1,14,0.00
2013-5-11,79,58,48,63,52,47,98,84,55,30.14,30.04,7,1,0,0.00
2013-5-12,70,58,47,60,52,46,98,84,63,30.13,30.01,8,1,0,0.00
2013-5-13,75,60,48,61,53,47,98,80,56,30.07,29.92,7,1,0,0.00
2013-5-14,76,60,47,56,49,44,96,71,45,29.97,29.87,7,1,0,0.00
2013-5-15,71,55,43,54,47,41,97,77,49,30.01,29.96,7,1,16,0.00
2013-5-16,68,58,48,57,51,46,92,80,57,30.00,29.93,13,2,20,0.00
2013-5-17,66,54,39,52,46,38,98,76,50,30.06,29.95,13,1,16,0.00
2013-5-18,76,57,39,54,47,38,98,72,38,30.11,30.04,9,1,12,0.00
2013-5-19,79,62,42,53,47,40,96,64,33,30.11,29.96,8,1,12,0.00
2013-5-20,85,61,43,53,48,41,97,67,25,29.99,29.90,7,1,13,0.00
2013-5-21,72,58,46,49,45,36,93,66,27,29.98,29.88,12,2,22,0.00
2013-5-22,66,55,42,44,37,30,85,53,29,30.03,29.87,14,4,19,0.00
2013-5-23,69,53,36,46,41,34,96,67,33,29.99,29.90,8,1,14,0.00
2013-5-24,70,54,36,49,42,35,97,70,41,29.99,29.90,7,1,0,0.00
2013-5-25,68,54,40,50,45,38,96,74,46,30.02,29.94,8,1,0,0.00
2013-5-26,67,57,45,55,50,43,97,79,58,30.11,30.02,10,2,16,0.00
2013-5-27,63,55,45,57,52,43,97,88,75,30.10,29.98,8,1,0,0.20
2013-5-28,70,60,54,60,55,50,98,84,61,29.98,29.90,8,1,13,0.04
2013-5-29,72,60,48,57,52,45,90,77,54,29.95,29.87,12,2,16,0.00
2013-5-30,75,58,40,53,47,39,98,70,39,29.98,29.91,7,1,12,0.00
2013-5-31,82,63,45,54,48,42,94,63,30,30.00,29.89,7,1,0,0.00
2013-6-1,87,66,47,56,50,44,91,60,32,29.92,29.75,5,1,0,0.00
2013-6-2,78,63,48,56,50,45,93,67,43,29.76,29.63,8,1,0,0.00
2013-6-3,71,58,45,55,50,44,97,78,54,29.87,29.69,8,1,0,0.00
2013-6-4,67,58,53,54,52,50,92,81,63,29.97,29.85,10,1,0,0.00
2013-6-5,67,57,52,55,52,50,94,83,63,29.99,29.91,11,1,0,0.00
2013-6-6,72,56,51,57,52,49,96,85,57,29.95,29.85,8,1,12,0.00
2013-6-7,84,63,50,60,54,49,97,75,41,29.88,29.69,5,1,0,0.00
2013-6-8,87,66,52,63,55,49,94,71,43,29.82,29.69,8,2,13,0.00
2013-6-9,65,59,56,56,54,53,91,83,70,29.88,29.82,8,2,0,0.00
2013-6-10,64,59,54,56,54,49,96,84,69,29.94,29.80,9,1,0,0.01
2013-6-11,73,62,49,58,53,46,90,73,50,29.97,29.86,9,1,0,0.00
2013-6-12,77,60,40,53,47,38,98,67,38,29.97,29.89,12,2,12,0.00
2013-6-13,80,60,40,53,46,38,96,63,28,30.07,29.96,8,1,0,0.00
2013-6-14,84,63,49,52,48,40,90,61,21,29.98,29.81,12,2,15,0.00
2013-6-15,77,57,42,55,48,40,97,76,42,29.97,29.81,9,1,12,0.00
2013-6-16,78,61,45,56,50,44,96,70,42,30.06,29.97,8,1,18,0.00
2013-6-17,74,60,46,57,52,44,97,77,54,30.07,29.98,17,2,20,0.00
2013-6-18,69,58,46,53,50,45,98,76,52,30.00,29.92,15,3,19,0.00
2013-6-19,74,59,42,51,47,40,97,68,39,30.04,29.97,12,2,17,0.00
2013-6-20,77,60,43,51,47,40,96,65,37,30.00,29.90,9,2,13,0.00
2013-6-21,79,62,44,54,48,42,96,64,32,29.96,29.87,12,1,13,0.00
2013-6-22,83,65,45,55,50,43,93,62,33,29.91,29.80,6,1,0,0.00
2013-6-23,67,60,54,60,56,52,94,88,76,29.85,29.79,5,1,0,0.00
2013-6-24,63,59,56,59,56,54,97,92,81,29.88,29.78,3,0,0,0.11
2013-6-25,66,62,58,64,61,57,98,96,91,29.96,29.85,5,1,0,0.81
2013-6-26,80,68,60,67,63,58,99,85,57,30.03,29.95,6,1,0,0.05
2013-6-27,84,67,56,66,60,56,99,79,49,30.07,29.98,5,1,12,0.00
2013-6-28,92,72,56,67,60,54,97,69,40,30.01,29.86,7,1,0,0.00
2013-6-29,96,74,55,63,58,53,95,62,31,29.89,29.76,9,2,0,0.01
2013-6-30,85,68,55,61,57,53,94,69,41,29.82,29.73,8,2,0,0.00
2013-7-1,93,69,54,65,57,52,97,71,34,29.82,29.77,8,1,0,0.00
2013-7-2,90,69,58,65,59,55,94,72,44,29.91,29.79,9,2,0,0.00
2013-7-3,87,68,56,66,59,55,98,75,47,29.90,29.74,10,2,0,0.00
2013-7-4,88,73,60,65,58,49,88,62,34,29.78,29.63,8,2,0,0.00
2013-7-5,80,63,52,58,53,49,93,71,46,29.73,29.67,9,2,0,0.00
2013-7-6,75,59,50,58,53,49,98,83,56,29.78,29.71,9,1,0,0.00
2013-7-7,76,60,52,59,54,51,97,83,55,29.86,29.78,10,2,0,0.00
2013-7-8,77,59,53,60,54,52,97,85,55,29.97,29.86,9,2,0,0.00
2013-7-9,84,62,49,60,54,49,100,78,40,30.02,29.92,9,2,0,0.00
2013-7-10,74,58,51,58,53,50,99,86,54,29.98,29.89,10,2,15,0.00
2013-7-11,69,56,50,56,52,50,99,88,62,29.94,29.86,9,2,12,0.00
2013-7-12,67,55,51,55,51,49,94,89,65,29.94,29.85,8,0,0,0.00
2013-7-13,79,59,44,58,51,42,98,76,46,29.94,29.88,8,1,0,0.00
2013-7-14,76,59,51,58,52,49,95,81,51,29.99,29.89,9,1,12,0.00
2013-7-15,67,56,50,56,52,48,97,87,63,29.92,29.83,9,1,13,0.00
2013-7-16,66,58,52,57,53,50,93,83,70,30.01,29.86,8,1,0,0.00
2013-7-17,73,59,48,59,54,47,98,84,59,30.08,30.00,6,1,0,0.00
2013-7-18,76,60,52,59,54,51,97,83,54,30.05,29.93,7,1,0,0.00
2013-7-19,82,60,48,61,53,47,97,80,47,29.94,29.81,7,1,0,0.00
2013-7-20,81,60,47,60,52,46,97,80,47,29.83,29.72,6,1,0,0.00
2013-7-21,81,62,52,59,53,50,94,76,45,29.88,29.75,6,1,0,0.00
2013-7-22,83,64,51,61,55,49,95,76,39,29.95,29.88,7,1,0,0.00
2013-7-23,76,64,56,60,56,54,92,77,55,29.98,29.92,5,1,0,0.00
2013-7-24,78,62,54,59,55,52,96,78,49,29.98,29.89,7,1,0,0.00
2013-7-25,72,59,52,57,53,51,96,83,56,30.02,29.91,7,1,0,0.00
2013-7-26,74,59,52,59,54,51,97,85,58,30.09,30.00,10,1,0,0.00
2013-7-27,74,59,52,58,54,51,97,85,56,30.02,29.86,6,1,0,0.00
2013-7-28,74,58,52,58,53,50,98,84,56,29.88,29.79,7,1,0,0.00
2013-7-29,74,60,54,57,53,50,90,79,54,30.01,29.83,7,1,0,0.00
2013-7-30,71,58,52,57,53,50,95,84,59,30.10,30.01,7,1,13,0.00
2013-7-31,71,60,52,56,53,49,94,79,58,30.07,29.96,7,1,0,0.00
2013-8-1,74,60,47,56,52,45,97,75,50,30.04,29.92,10,1,0,0.00
2013-8-2,81,61,45,57,51,43,98,73,40,29.96,29.86,7,1,0,0.00
2013-8-3,77,58,47,57,52,45,95,80,50,29.95,29.89,9,1,12,0.00
2013-8-4,72,57,52,57,52,50,94,84,58,29.99,29.94,7,1,13,0.00
2013-8-5,74,58,52,58,52,50,94,83,56,30.01,29.93,7,1,0,0.00
2013-8-6,69,59,52,56,53,50,95,81,60,30.03,29.97,8,1,0,0.00
2013-8-7,69,61,55,58,55,52,95,82,65,30.08,30.02,6,1,0,0.00
2013-8-8,71,60,53,58,55,51,93,83,62,30.02,29.93,6,1,14,0.00
2013-8-9,69,58,53,58,54,51,96,86,64,29.98,29.90,7,1,0,0.00
2013-8-10,71,61,55,58,55,53,94,83,62,30.03,29.97,9,1,0,0.00
2013-8-11,73,59,53,59,55,52,97,86,60,30.01,29.92,8,1,0,0.00
2013-8-12,79,60,53,60,54,52,97,82,47,29.98,29.92,8,1,0,0.00
2013-8-13,83,64,53,59,54,50,96,75,40,29.98,29.88,8,1,0,0.00
2013-8-14,83,63,48,61,54,46,97,75,35,29.96,29.86,8,1,0,0.00
2013-8-15,81,66,54,66,60,53,98,82,53,29.93,29.88,10,1,0,0.00
2013-8-16,84,66,55,65,59,53,97,81,50,29.96,29.92,7,1,0,0.00
2013-8-17,83,66,51,61,55,49,97,73,43,29.96,29.81,7,1,0,0.00
2013-8-18,88,68,51,63,56,49,96,70,42,29.86,29.75,6,1,0,0.00
2013-8-19,85,68,57,62,57,52,93,71,41,29.87,29.77,7,1,0,0.00
2013-8-20,85,66,59,61,58,56,95,79,41,29.89,29.79,8,1,12,0.00
2013-8-21,74,60,53,57,54,50,92,82,55,29.91,29.85,6,0,0,0.00
2013-8-22,70,60,53,57,54,50,94,82,60,29.97,29.88,7,1,12,0.00
2013-8-23,74,62,54,59,55,51,93,80,56,29.91,29.77,7,1,0,0.00
2013-8-24,74,62,51,59,55,49,97,80,57,29.87,29.80,8,1,12,0.00
2013-8-25,78,66,57,64,60,54,96,82,60,29.92,29.85,7,1,0,0.00
2013-8-26,76,64,54,61,56,51,95,79,50,29.99,29.88,7,1,13,0.00
2013-8-27,82,62,46,61,54,45,97,78,42,29.88,29.80,8,1,0,0.00
2013-8-28,78,65,56,64,60,55,98,84,60,29.93,29.83,8,1,0,0.00
2013-8-29,79,66,60,64,61,58,96,84,59,30.03,29.93,6,1,0,0.00
2013-8-30,86,68,53,64,58,52,98,75,45,30.01,29.89,7,1,14,0.00
2013-8-31,78,62,52,61,56,50,97,81,54,29.95,29.88,9,1,0,0.00
2013-9-1,76,63,54,62,57,52,95,81,54,29.93,29.86,7,1,12,0.00
2013-9-2,78,67,57,65,61,55,98,83,59,29.93,29.87,12,1,14,0.00
2013-9-3,78,63,48,60,55,47,98,77,43,29.97,29.90,9,1,15,0.00
2013-9-4,78,63,48,60,55,47,98,77,48,30.00,29.90,10,1,14,0.00
2013-9-5,80,64,49,58,54,47,98,73,43,29.98,29.90,12,1,16,0.00
2013-9-6,91,68,47,56,50,45,97,61,26,29.96,29.81,9,1,0,0.00
2013-9-7,97,68,46,54,50,42,90,59,17,29.85,29.78,9,1,12,0.00
2013-9-8,83,63,49,60,54,48,98,75,37,29.86,29.75,7,1,0,0.00
2013-9-9,88,63,49,60,54,47,98,78,34,29.80,29.69,7,1,0,0.00
2013-9-10,78,64,57,62,58,55,96,84,55,29.89,29.71,7,1,0,0.00
2013-9-11,72,65,62,61,59,58,92,81,65,29.98,29.88,5,0,0,0.00
2013-9-12,75,63,57,63,59,55,96,85,62,29.97,29.87,8,1,0,0.00
2013-9-13,75,61,55,60,56,53,97,85,57,29.89,29.73,8,1,0,0.00
2013-9-14,73,60,54,60,55,52,96,85,62,29.80,29.71,6,1,0,0.00
2013-9-15,76,62,53,60,56,52,97,81,54,29.84,29.75,8,1,12,0.00
2013-9-16,82,63,50,61,55,48,98,78,46,29.88,29.75,7,1,0,0.00
2013-9-17,78,62,47,56,52,46,98,73,46,29.87,29.78,9,1,16,0.00
2013-9-18,82,63,52,53,48,43,84,62,27,29.89,29.79,7,1,16,0.00
2013-9-19,88,60,42,53,47,40,94,68,26,29.84,29.73,12,1,12,0.00
2013-9-20,76,59,42,62,53,40,97,82,58,29.82,29.75,10,1,14,0.00
2013-9-21,69,62,52,63,58,51,97,88,60,29.88,29.77,6,1,13,0.75
2013-9-22,72,59,46,56,52,45,98,80,50,29.99,29.88,8,1,15,0.00
2013-9-23,81,62,49,63,55,47,96,79,47,30.00,29.90,10,1,13,0.00
2013-9-24,79,62,50,56,52,48,98,73,36,29.95,29.86,10,1,15,0.00
2013-9-25,71,54,46,50,46,42,94,77,36,29.92,29.87,11,1,17,0.00
2013-9-28,62,58,54,57,55,52,95,89,79,30.06,30.01,4,0,0,0.00
2013-9-29,72,61,51,63,58,50,97,91,73,30.08,30.02,11,2,14,0.00
2013-9-30,74,63,50,65,60,45,100,90,71,30.04,29.96,9,2,0,0.05
2013-10-1,75,58,42,53,48,41,100,73,43,30.00,29.89,8,1,12,0.00
2013-10-2,73,61,50,52,48,42,90,65,40,30.01,29.91,12,2,14,0.00
2013-10-3,77,63,46,43,35,23,79,41,14,30.07,29.94,17,4,22,0.00
2013-10-4,82,69,55,34,27,20,38,22,10,30.06,29.97,18,4,21,0.00
2013-10-5,86,62,38,42,32,26,77,39,12,30.17,30.06,7,1,0,0.00
2013-10-6,86,60,37,41,35,26,85,45,15,30.11,29.98,4,0,0,0.00
2013-10-7,84,59,39,48,39,27,85,53,14,29.98,29.85,8,1,0,0.00
2013-10-8,79,55,38,48,43,36,94,69,29,29.90,29.69,10,1,0,0.00
2013-10-9,73,55,38,46,41,36,96,65,34,29.74,29.61,9,1,12,0.00
2013-10-10,74,55,42,51,44,38,94,71,34,29.99,29.73,7,1,0,0.00
2013-10-11,68,51,42,51,47,40,97,86,53,30.08,29.97,5,1,0,0.00
2013-10-12,70,52,42,52,46,41,98,82,48,30.01,29.87,6,0,0,0.00
2013-10-13,76,53,38,49,42,36,97,70,27,30.05,29.91,7,1,13,0.09
2013-10-14,81,54,36,46,38,32,94,62,22,30.11,29.98,8,0,0,0.00
2013-10-15,84,56,35,42,34,30,89,51,15,30.03,29.92,6,0,0,0.00
2013-10-16,84,56,36,40,34,29,86,51,16,30.08,29.98,9,1,0,0.00
2013-10-17,84,56,36,46,36,30,91,55,16,30.08,29.94,8,1,12,0.00
2013-10-18,78,53,40,50,43,37,98,74,32,30.04,29.97,6,0,0,0.00
2013-10-19,86,54,34,48,42,33,97,70,19,30.07,29.96,6,0,0,0.00
2013-10-20,77,52,41,52,46,39,98,82,38,30.01,29.90,6,1,0,0.01
2013-10-21,72,53,47,53,48,46,98,85,50,30.00,29.89,5,0,0,0.00
2013-10-22,76,53,46,53,48,44,98,84,43,30.01,29.91,5,0,0,0.00
2013-10-23,72,52,45,53,48,45,98,87,46,29.97,29.88,5,1,0,0.00
2013-10-24,64,51,42,51,47,41,98,87,59,30.10,29.95,5,0,0,0.00
2013-10-25,68,50,40,54,46,39,100,86,56,30.17,30.07,7,1,0,0.01
2013-10-26,82,52,36,51,43,34,98,77,32,30.14,30.01,5,0,0,0.00
2013-10-27,61,51,43,51,48,41,98,88,66,30.02,29.63,9,1,19,0.00
2013-10-28,65,50,35,48,42,33,97,79,48,29.81,29.65,5,1,0,0.00
2013-10-29,65,52,44,49,46,41,96,81,53,30.04,29.81,6,1,0,0.00
2013-10-30,68,50,41,50,44,38,98,82,48,30.14,30.04,5,0,0,0.01
2013-10-31,75,51,34,48,41,33,96,72,36,30.17,30.05,6,0,0,0.00
2013-11-1,77,54,38,49,41,34,95,67,32,30.14,30.00,6,1,0,0.00
2013-11-2,71,52,37,55,44,34,97,75,47,30.01,29.88,7,1,0,0.00
2013-11-3,65,52,38,41,35,29,81,55,26,30.04,29.91,16,3,21,0.00
2013-11-4,73,54,34,38,32,22,92,52,15,30.08,29.91,15,3,19,0.00
2013-11-5,76,55,40,40,36,31,78,52,23,30.20,30.06,10,1,0,0.00
2013-11-6,74,56,40,45,40,35,90,59,27,30.25,30.15,9,1,14,0.00
2013-11-7,73,56,45,52,44,37,96,67,29,30.16,30.06,11,1,13,0.00
2013-11-8,73,52,38,54,46,38,100,83,41,30.07,29.95,13,1,13,0.00
2013-11-9,73,52,38,51,44,38,100,79,35,30.04,29.94,10,1,0,0.01
2013-11-10,69,51,39,53,46,38,100,86,51,30.10,30.01,7,1,0,0.00
2013-11-11,66,54,39,52,48,38,99,83,57,30.18,30.06,5,0,0,0.00
2013-11-12,72,57,46,53,49,44,95,76,46,30.26,30.13,6,1,0,0.00
2013-11-13,77,54,39,56,49,38,100,86,47,30.24,30.08,9,1,0,0.00
2013-11-14,64,51,43,56,49,39,100,91,70,30.10,29.87,5,0,0,0.00
2013-11-15,65,49,37,46,40,34,95,74,42,29.88,29.71,8,1,0,0.00
2013-11-16,68,48,34,50,41,32,97,80,42,29.91,29.75,9,1,15,0.00
2013-11-17,63,47,36,50,43,35,98,87,58,30.07,29.91,6,0,0,0.01
2013-11-18,58,46,34,49,42,32,98,87,69,30.15,30.06,6,0,0,0.00
2013-11-19,56,54,50,55,52,47,98,96,87,30.08,29.91,9,2,12,0.59
2013-11-20,58,55,49,57,54,48,99,97,92,29.91,29.83,5,0,0,0.33
2013-11-21,64,56,50,51,34,15,98,55,18,29.97,29.88,23,5,35,0.00
2013-11-22,74,65,58,16,9,3,19,11,7,30.00,29.85,31,7,31,0.00
2013-11-23,66,53,36,38,29,10,80,45,11,30.09,29.93,11,2,18,0.00
2013-11-24,64,45,31,46,36,28,95,74,40,30.24,30.08,7,1,0,0.00
2013-11-25,64,45,32,47,39,30,97,81,49,30.32,30.23,8,1,0,0.00
2013-11-26,64,47,35,45,40,34,97,78,44,30.27,30.03,5,1,0,0.00
2013-11-27,65,49,36,46,41,35,96,78,48,30.03,29.83,8,1,0,0.00
2013-11-28,71,49,37,47,41,35,96,76,37,30.06,29.86,5,0,0,0.00
2013-11-29,69,48,34,48,40,32,96,79,39,30.21,30.06,5,1,0,0.00
2013-11-30,70,49,37,50,42,35,97,81,40,30.27,30.17,5,0,0,0.00
2013-12-1,73,49,35,49,42,34,100,79,40,30.33,30.20,6,0,0,0.01
2013-12-2,66,50,35,54,46,34,100,88,63,30.22,29.94,11,2,16,0.00
2013-12-3,57,49,39,52,36,29,96,62,36,29.94,29.82,13,3,15,0.00
2013-12-4,54,37,25,32,27,22,94,71,30,30.08,29.94,5,0,0,0.00
2013-12-5,53,34,20,34,25,18,97,74,30,30.16,30.08,6,1,0,0.00
2013-12-6,49,37,21,47,31,19,96,83,46,30.18,29.89,8,1,14,0.29
2013-12-7,47,38,28,43,30,24,97,77,44,30.26,29.91,15,3,24,0.02
2013-12-8,48,33,25,32,26,22,96,78,43,30.32,30.22,4,0,0,0.00
2013-12-9,49,32,20,31,23,18,94,73,36,30.42,30.30,8,1,0,0.00
2013-12-10,52,35,21,33,27,19,95,76,42,30.41,30.20,4,0,0,0.00
2013-12-11,56,38,25,37,30,23,95,77,44,30.24,30.17,8,1,0,0.00
2013-12-12,60,40,27,39,32,25,97,77,40,30.27,30.15,6,0,0,0.01
2013-12-13,63,40,25,40,32,24,96,78,35,30.34,30.22,5,0,0,0.00
2013-12-14,60,41,28,44,35,26,99,82,51,30.40,30.29,8,1,0,0.00
2013-12-15,64,41,28,44,35,28,99,82,43,30.36,30.23,3,0,0,0.01
2013-12-16,64,44,32,43,36,30,97,77,42,30.24,30.11,5,1,0,0.00
2013-12-17,64,44,32,44,37,30,96,80,45,30.18,30.02,5,1,0,0.00
2013-12-18,58,43,33,48,39,32,97,88,67,30.02,29.76,6,1,0,0.00
2013-12-19,62,49,35,40,29,11,97,54,19,29.92,29.72,18,3,25,0.00
2013-12-20,66,45,27,36,28,20,83,58,18,30.00,29.91,7,1,0,0.00
2013-12-21,65,47,34,51,41,33,98,83,53,30.08,29.95,5,0,0,0.00
2013-12-22,65,44,31,45,37,30,98,77,42,30.28,30.07,5,0,0,0.00
2013-12-23,66,45,31,46,38,30,98,79,46,30.39,30.27,5,0,0,0.00
2013-12-24,70,46,33,48,39,31,96,78,40,30.33,30.18,5,0,0,0.00
2013-12-25,64,42,27,44,36,26,98,80,43,30.30,30.18,5,1,0,0.00
2013-12-26,66,42,29,42,34,28,97,76,39,30.25,30.14,6,1,0,0.01
2013-12-27,58,41,31,42,35,28,95,79,52,30.23,30.12,5,1,0,0.00
2013-12-28,69,42,24,40,32,22,97,74,33,30.15,30.01,5,1,0,0.00
2013-12-29,64,43,26,36,30,22,92,65,28,30.18,30.07,10,1,0,0.00
2013-12-30,62,43,27,40,33,24,93,71,41,30.24,30.16,7,1,0,0.00
2013-12-31,64,42,32,46,37,28,98,83,45,30.27,30.14,6,0,0,0.00
2014-1-1,66,42,26,41,33,25,97,76,27,30.20,30.11,3,0,0,0.00
2014-1-2,66,45,31,41,35,29,97,73,39,30.17,30.04,4,0,0,0.00